sensor_id;sensor_type;location;lat;lon;timestamp;P1;durP1;ratioP1;P2;durP2;ratioP2
12842;SDS011;35724;49.324;-123.118;2023-04-27T00:06:13;1.48;;;1.00;;
12842;SDS011;35724;49.324;-123.118;2023-04-27T00:16:20;1.48;;;0.85;;
12842;SDS011;35724;49.324;-123.118;2023-04-27T00:26:30;2.13;;;1.50;;
12842;SDS011;35724;49.324;-123.118;2023-04-27T00:36:37;1.50;;;1.40;;
12842;SDS011;35724;49.324;-123.118;2023-04-27T00:46:45;1.48;;;1.20;;
12842;SDS011;35724;49.324;-123.118;2023-04-27T00:56:52;1.17;;;1.08;;
12842;SDS011;35724;49.324;-123.118;2023-04-27T01:07:02;1.30;;;1.20;;
12842;SDS011;35724;49.324;-123.118;2023-04-27T01:17:10;1.20;;;1.10;;
12842;SDS011;35724;49.324;-123.118;2023-04-27T01:27:18;2.03;;;1.10;;
12842;SDS011;35724;49.324;-123.118;2023-04-27T01:37:25;2.13;;;1.20;;
12842;SDS011;35724;49.324;-123.118;2023-04-27T01:47:34;1.75;;;1.10;;
12842;SDS011;35724;49.324;-123.118;2023-04-27T01:57:42;1.63;;;1.10;;
12842;SDS011;35724;49.324;-123.118;2023-04-27T02:07:51;1.30;;;0.95;;
12842;SDS011;35724;49.324;-123.118;2023-04-27T02:17:59;3.15;;;1.20;;
12842;SDS011;35724;49.324;-123.118;2023-04-27T02:28:08;2.33;;;1.50;;
12842;SDS011;35724;49.324;-123.118;2023-04-27T02:38:15;5.85;;;2.10;;
12842;SDS011;35724;49.324;-123.118;2023-04-27T02:48:27;3.38;;;1.60;;
12842;SDS011;35724;49.324;-123.118;2023-04-27T02:58:35;3.13;;;1.52;;
12842;SDS011;35724;49.324;-123.118;2023-04-27T03:08:44;3.40;;;1.38;;
12842;SDS011;35724;49.324;-123.118;2023-04-27T03:18:51;3.28;;;1.42;;
12842;SDS011;35724;49.324;-123.118;2023-04-27T03:29:01;1.88;;;1.60;;
12842;SDS011;35724;49.324;-123.118;2023-04-27T03:39:08;1.60;;;1.40;;
12842;SDS011;35724;49.324;-123.118;2023-04-27T03:49:17;3.70;;;1.40;;
12842;SDS011;35724;49.324;-123.118;2023-04-27T03:59:27;2.35;;;1.38;;
12842;SDS011;35724;49.324;-123.118;2023-04-27T04:09:36;1.75;;;1.23;;
12842;SDS011;35724;49.324;-123.118;2023-04-27T04:19:43;2.13;;;1.52;;
12842;SDS011;35724;49.324;-123.118;2023-04-27T04:29:52;2.20;;;1.40;;
12842;SDS011;35724;49.324;-123.118;2023-04-27T04:40:02;2.13;;;1.30;;
12842;SDS011;35724;49.324;-123.118;2023-04-27T04:50:15;5.97;;;1.88;;
12842;SDS011;35724;49.324;-123.118;2023-04-27T05:00:23;3.25;;;2.10;;
12842;SDS011;35724;49.324;-123.118;2023-04-27T05:10:32;2.67;;;1.70;;
12842;SDS011;35724;49.324;-123.118;2023-04-27T05:20:42;3.10;;;1.63;;
12842;SDS011;35724;49.324;-123.118;2023-04-27T05:30:51;2.40;;;1.60;;
12842;SDS011;35724;49.324;-123.118;2023-04-27T05:40:59;2.70;;;1.45;;
12842;SDS011;35724;49.324;-123.118;2023-04-27T05:51:08;1.48;;;1.20;;
12842;SDS011;35724;49.324;-123.118;2023-04-27T06:01:15;1.60;;;1.20;;
12842;SDS011;35724;49.324;-123.118;2023-04-27T06:11:24;1.10;;;1.00;;
12842;SDS011;35724;49.324;-123.118;2023-04-27T06:21:31;1.10;;;1.00;;
12842;SDS011;35724;49.324;-123.118;2023-04-27T06:31:40;3.15;;;1.48;;
12842;SDS011;35724;49.324;-123.118;2023-04-27T06:41:47;1.60;;;1.20;;
12842;SDS011;35724;49.324;-123.118;2023-04-27T06:51:56;1.42;;;1.30;;
12842;SDS011;35724;49.324;-123.118;2023-04-27T07:02:04;1.17;;;1.02;;
12842;SDS011;35724;49.324;-123.118;2023-04-27T07:12:14;1.38;;;1.10;;
12842;SDS011;35724;49.324;-123.118;2023-04-27T07:22:21;1.20;;;0.90;;
12842;SDS011;35724;49.324;-123.118;2023-04-27T07:32:30;0.88;;;0.88;;
12842;SDS011;35724;49.324;-123.118;2023-04-27T07:42:37;1.05;;;1.00;;
12842;SDS011;35724;49.324;-123.118;2023-04-27T07:52:46;0.80;;;0.80;;
12842;SDS011;35724;49.324;-123.118;2023-04-27T08:02:53;1.02;;;0.93;;
12842;SDS011;35724;49.324;-123.118;2023-04-27T08:13:03;1.10;;;0.95;;
12842;SDS011;35724;49.324;-123.118;2023-04-27T08:23:12;0.63;;;0.63;;
12842;SDS011;35724;49.324;-123.118;2023-04-27T08:33:21;0.70;;;0.70;;
12842;SDS011;35724;49.324;-123.118;2023-04-27T08:43:31;0.90;;;0.70;;
12842;SDS011;35724;49.324;-123.118;2023-04-27T08:53:41;1.20;;;0.80;;
12842;SDS011;35724;49.324;-123.118;2023-04-27T09:03:56;0.60;;;0.60;;
12842;SDS011;35724;49.324;-123.118;2023-04-27T09:14:16;0.60;;;0.60;;
12842;SDS011;35724;49.324;-123.118;2023-04-27T09:24:24;0.60;;;0.60;;
12842;SDS011;35724;49.324;-123.118;2023-04-27T09:34:39;0.55;;;0.55;;
12842;SDS011;35724;49.324;-123.118;2023-04-27T09:44:46;0.50;;;0.50;;
12842;SDS011;35724;49.324;-123.118;2023-04-27T09:54:55;0.60;;;0.60;;
12842;SDS011;35724;49.324;-123.118;2023-04-27T10:05:12;0.60;;;0.60;;
12842;SDS011;35724;49.324;-123.118;2023-04-27T10:15:38;0.70;;;0.70;;
12842;SDS011;35724;49.324;-123.118;2023-04-27T10:25:45;0.50;;;0.50;;
12842;SDS011;35724;49.324;-123.118;2023-04-27T10:35:54;0.45;;;0.45;;
12842;SDS011;35724;49.324;-123.118;2023-04-27T10:46:06;0.60;;;0.60;;
12842;SDS011;35724;49.324;-123.118;2023-04-27T10:56:17;0.50;;;0.50;;
12842;SDS011;35724;49.324;-123.118;2023-04-27T11:06:24;0.40;;;0.40;;
12842;SDS011;35724;49.324;-123.118;2023-04-27T11:16:35;0.40;;;0.40;;
12842;SDS011;35724;49.324;-123.118;2023-04-27T11:26:53;0.40;;;0.40;;
12842;SDS011;35724;49.324;-123.118;2023-04-27T11:37:02;0.55;;;0.55;;
12842;SDS011;35724;49.324;-123.118;2023-04-27T11:47:15;0.30;;;0.30;;
12842;SDS011;35724;49.324;-123.118;2023-04-27T11:57:25;0.57;;;0.57;;
12842;SDS011;35724;49.324;-123.118;2023-04-27T12:07:33;0.50;;;0.50;;
12842;SDS011;35724;49.324;-123.118;2023-04-27T12:17:42;0.50;;;0.50;;
12842;SDS011;35724;49.324;-123.118;2023-04-27T12:27:49;0.50;;;0.50;;
12842;SDS011;35724;49.324;-123.118;2023-04-27T12:37:58;0.30;;;0.30;;
12842;SDS011;35724;49.324;-123.118;2023-04-27T12:48:06;0.60;;;0.60;;
12842;SDS011;35724;49.324;-123.118;2023-04-27T12:58:14;0.43;;;0.43;;
12842;SDS011;35724;49.324;-123.118;2023-04-27T13:08:22;0.50;;;0.50;;
12842;SDS011;35724;49.324;-123.118;2023-04-27T13:18:31;0.45;;;0.45;;
12842;SDS011;35724;49.324;-123.118;2023-04-27T13:28:38;0.40;;;0.40;;
12842;SDS011;35724;49.324;-123.118;2023-04-27T13:38:47;0.40;;;0.40;;
12842;SDS011;35724;49.324;-123.118;2023-04-27T13:48:54;0.40;;;0.40;;
12842;SDS011;35724;49.324;-123.118;2023-04-27T13:59:03;0.50;;;0.50;;
12842;SDS011;35724;49.324;-123.118;2023-04-27T14:09:12;0.60;;;0.60;;
12842;SDS011;35724;49.324;-123.118;2023-04-27T14:19:21;0.70;;;0.70;;
12842;SDS011;35724;49.324;-123.118;2023-04-27T14:29:30;1.13;;;0.77;;
12842;SDS011;35724;49.324;-123.118;2023-04-27T14:39:39;2.20;;;0.80;;
12842;SDS011;35724;49.324;-123.118;2023-04-27T14:49:47;1.25;;;0.85;;
12842;SDS011;35724;49.324;-123.118;2023-04-27T14:59:55;2.92;;;1.10;;
12842;SDS011;35724;49.324;-123.118;2023-04-27T15:10:03;1.15;;;0.95;;
12842;SDS011;35724;49.324;-123.118;2023-04-27T15:20:13;2.85;;;0.95;;
12842;SDS011;35724;49.324;-123.118;2023-04-27T15:30:20;7.35;;;1.30;;
12842;SDS011;35724;49.324;-123.118;2023-04-27T15:40:29;2.35;;;1.02;;
12842;SDS011;35724;49.324;-123.118;2023-04-27T15:50:38;1.63;;;0.95;;
12842;SDS011;35724;49.324;-123.118;2023-04-27T16:00:46;1.13;;;1.02;;
12842;SDS011;35724;49.324;-123.118;2023-04-27T16:10:53;1.35;;;1.10;;
12842;SDS011;35724;49.324;-123.118;2023-04-27T16:21:03;2.15;;;1.10;;
12842;SDS011;35724;49.324;-123.118;2023-04-27T16:31:12;2.60;;;1.30;;
12842;SDS011;35724;49.324;-123.118;2023-04-27T16:41:21;1.75;;;1.33;;
12842;SDS011;35724;49.324;-123.118;2023-04-27T16:51:31;1.48;;;1.38;;
12842;SDS011;35724;49.324;-123.118;2023-04-27T17:01:43;2.75;;;1.42;;
12842;SDS011;35724;49.324;-123.118;2023-04-27T17:35:01;1.63;;;1.52;;
12842;SDS011;35724;49.324;-123.118;2023-04-27T17:45:12;3.22;;;1.70;;
12842;SDS011;35724;49.324;-123.118;2023-04-27T17:55:28;2.38;;;1.50;;
12842;SDS011;35724;49.324;-123.118;2023-04-27T18:06:29;2.50;;;1.40;;
12842;SDS011;35724;49.324;-123.118;2023-04-27T18:18:05;2.05;;;1.10;;
12842;SDS011;35724;49.324;-123.118;2023-04-27T18:29:24;1.30;;;1.13;;
12842;SDS011;35724;49.324;-123.118;2023-04-27T18:39:59;1.88;;;1.10;;
12842;SDS011;35724;49.324;-123.118;2023-04-27T18:50:48;3.40;;;1.10;;
12842;SDS011;35724;49.324;-123.118;2023-04-27T19:24:23;1.52;;;1.10;;
12842;SDS011;35724;49.324;-123.118;2023-04-27T19:35:52;1.35;;;1.23;;
12842;SDS011;35724;49.324;-123.118;2023-04-27T19:59:15;3.05;;;1.15;;
12842;SDS011;35724;49.324;-123.118;2023-04-27T20:09:39;2.75;;;1.40;;
12842;SDS011;35724;49.324;-123.118;2023-04-27T20:20:10;1.40;;;1.30;;
12842;SDS011;35724;49.324;-123.118;2023-04-27T20:42:24;1.70;;;1.13;;
12842;SDS011;35724;49.324;-123.118;2023-04-27T20:52:32;1.92;;;1.30;;
12842;SDS011;35724;49.324;-123.118;2023-04-27T21:02:41;1.10;;;1.00;;
12842;SDS011;35724;49.324;-123.118;2023-04-27T21:12:50;1.75;;;1.05;;
12842;SDS011;35724;49.324;-123.118;2023-04-27T21:22:59;3.67;;;1.42;;
12842;SDS011;35724;49.324;-123.118;2023-04-27T21:33:07;2.35;;;1.30;;
12842;SDS011;35724;49.324;-123.118;2023-04-27T21:43:15;1.58;;;1.30;;
12842;SDS011;35724;49.324;-123.118;2023-04-27T21:53:23;1.40;;;1.30;;
12842;SDS011;35724;49.324;-123.118;2023-04-27T22:03:32;3.75;;;1.35;;
12842;SDS011;35724;49.324;-123.118;2023-04-27T22:13:44;1.70;;;1.20;;
12842;SDS011;35724;49.324;-123.118;2023-04-27T22:23:53;6.78;;;1.58;;
12842;SDS011;35724;49.324;-123.118;2023-04-27T22:34:01;2.38;;;1.48;;
12842;SDS011;35724;49.324;-123.118;2023-04-27T22:44:13;3.13;;;1.67;;
12842;SDS011;35724;49.324;-123.118;2023-04-27T22:54:26;2.13;;;1.50;;
12842;SDS011;35724;49.324;-123.118;2023-04-27T23:04:37;3.22;;;1.55;;
12842;SDS011;35724;49.324;-123.118;2023-04-27T23:14:46;2.30;;;1.40;;
12842;SDS011;35724;49.324;-123.118;2023-04-27T23:24:58;3.25;;;1.48;;
12842;SDS011;35724;49.324;-123.118;2023-04-27T23:35:09;2.80;;;1.42;;
